Time;durP1;ratioP1;P1;durP2;ratioP2;P2;SDS_P1;SDS_P2;PMS_P1;PMS_P2;Temp;Humidity;BMP_temperature;BMP_pressure;BME280_temperature;BME280_humidity;BME280_pressure;Samples;Min_cycle;Max_cycle;Signal;HPM_P1;HPM_P2
2022/12/06 00:01:33;;;;;;;6.57;3.30;;;;;;;;;;4997778;28;20109;-82
2022/12/06 00:04:02;;;;;;;6.45;3.35;;;;;;;;;;4997949;28;20030;-84
2022/12/06 00:06:30;;;;;;;5.13;3.17;;;;;;;;;;4980345;28;20022;-81
2022/12/06 00:08:57;;;;;;;6.93;3.05;;;;;;;;;;4997687;28;20029;-81
2022/12/06 00:11:25;;;;;;;4.57;3.00;;;;;;;;;;4980476;28;20045;-82
2022/12/06 00:13:55;;;;;;;6.07;2.85;;;;;;;;;;4980142;28;20034;-83
2022/12/06 00:16:22;;;;;;;5.03;3.28;;;;;;;;;;4979935;28;20022;-82
2022/12/06 00:18:48;;;;;;;4.25;3.08;;;;;;;;;;4997083;28;20022;-82
2022/12/06 00:21:20;;;;;;;6.40;3.28;;;;;;;;;;4997137;28;20463;-82
2022/12/06 00:23:48;;;;;;;7.03;2.75;;;;;;;;;;4980396;28;20029;-83
2022/12/06 00:26:14;;;;;;;4.32;2.75;;;;;;;;;;4980196;28;20475;-81
2022/12/06 00:28:39;;;;;;;4.80;2.63;;;;;;;;;;4997221;28;20026;-81
2022/12/06 00:31:08;;;;;;;7.00;2.80;;;;;;;;;;4997151;28;20402;-82
2022/12/06 00:33:34;;;;;;;7.13;3.22;;;;;;;;;;4996823;28;20053;-83
2022/12/06 00:36:02;;;;;;;4.30;2.80;;;;;;;;;;4996928;28;20030;-81
2022/12/06 00:38:28;;;;;;;6.80;3.35;;;;;;;;;;4996463;28;20030;-82
2022/12/06 00:41:03;;;;;;;7.35;3.00;;;;;;;;;;4996659;28;20030;-83
2022/12/06 00:43:28;;;;;;;4.63;2.80;;;;;;;;;;4997025;28;20157;-83
2022/12/06 00:45:54;;;;;;;4.07;2.65;;;;;;;;;;4996985;28;20062;-83
2022/12/06 00:48:20;;;;;;;3.80;2.95;;;;;;;;;;4996409;28;20077;-83
2022/12/06 00:50:45;;;;;;;4.40;2.78;;;;;;;;;;4996718;28;20424;-83
2022/12/06 00:53:10;;;;;;;5.05;2.90;;;;;;;;;;4996694;28;20492;-83
2022/12/06 00:55:35;;;;;;;5.07;3.05;;;;;;;;;;4979145;28;20121;-83
2022/12/06 00:58:01;;;;;;;4.22;2.75;;;;;;;;;;4996913;28;20023;-82
2022/12/06 01:00:26;;;;;;;4.97;2.72;;;;;;;;;;4979180;28;20061;-82
2022/12/06 01:02:51;;;;;;;4.47;2.97;;;;;;;;;;4996381;28;20029;-83
2022/12/06 01:05:17;;;;;;;5.30;3.00;;;;;;;;;;4996740;28;20026;-83
2022/12/06 01:07:42;;;;;;;4.15;2.83;;;;;;;;;;4996583;28;20033;-83
2022/12/06 01:10:08;;;;;;;4.55;2.80;;;;;;;;;;4996172;28;20395;-82
2022/12/06 01:12:33;;;;;;;4.53;2.75;;;;;;;;;;4996823;28;20030;-83
2022/12/06 01:14:58;;;;;;;5.20;2.70;;;;;;;;;;4996518;28;20030;-82
2022/12/06 01:17:23;;;;;;;4.22;2.63;;;;;;;;;;4997138;28;20033;-83
2022/12/06 01:19:49;;;;;;;4.10;2.55;;;;;;;;;;4978672;28;20018;-82
2022/12/06 01:22:14;;;;;;;5.88;2.85;;;;;;;;;;4978636;28;20109;-82
2022/12/06 01:24:39;;;;;;;4.40;3.10;;;;;;;;;;4996250;28;20033;-82
2022/12/06 01:27:04;;;;;;;5.75;2.72;;;;;;;;;;4996429;28;20022;-82
2022/12/06 01:29:30;;;;;;;5.03;3.35;;;;;;;;;;4978898;28;20038;-82
2022/12/06 01:31:55;;;;;;;4.65;3.10;;;;;;;;;;4996083;28;20145;-83
2022/12/06 01:34:20;;;;;;;5.40;3.10;;;;;;;;;;4997233;28;20031;-85
2022/12/06 01:36:45;;;;;;;6.30;3.45;;;;;;;;;;4982109;28;20026;-83
2022/12/06 01:39:11;;;;;;;6.30;3.13;;;;;;;;;;5000145;28;20028;-81
2022/12/06 01:41:38;;;;;;;4.70;3.20;;;;;;;;;;4982971;28;20026;-82
2022/12/06 01:44:03;;;;;;;3.80;2.83;;;;;;;;;;5000356;28;20082;-82
2022/12/06 01:46:29;;;;;;;5.90;3.22;;;;;;;;;;4982471;28;20518;-82
2022/12/06 01:49:00;;;;;;;4.73;3.00;;;;;;;;;;4999857;28;20065;-81
2022/12/06 01:51:26;;;;;;;7.00;3.20;;;;;;;;;;4982675;28;20359;-83
2022/12/06 01:53:52;;;;;;;6.88;3.47;;;;;;;;;;5000207;28;20053;-82
2022/12/06 01:56:18;;;;;;;6.47;3.25;;;;;;;;;;4999560;28;20077;-81
2022/12/06 01:58:45;;;;;;;5.40;3.58;;;;;;;;;;5000203;28;20029;-82
2022/12/06 02:01:11;;;;;;;4.95;3.30;;;;;;;;;;5000149;28;20030;-84
2022/12/06 02:03:37;;;;;;;6.85;3.33;;;;;;;;;;5000073;28;20157;-83
2022/12/06 02:06:07;;;;;;;5.43;3.20;;;;;;;;;;4999667;28;20042;-83
2022/12/06 02:08:33;;;;;;;5.82;3.33;;;;;;;;;;5000071;28;20462;-82
2022/12/06 02:11:00;;;;;;;4.03;2.90;;;;;;;;;;4999564;28;20120;-82
2022/12/06 02:13:26;;;;;;;5.22;3.22;;;;;;;;;;4999785;28;20112;-83
2022/12/06 02:16:00;;;;;;;6.47;3.17;;;;;;;;;;5000096;28;20026;-81
2022/12/06 02:18:36;;;;;;;8.68;3.40;;;;;;;;;;4999421;28;20093;-82
2022/12/06 02:21:16;;;;;;;7.47;2.97;;;;;;;;;;4999912;28;20030;-82
2022/12/06 02:23:59;;;;;;;5.70;2.92;;;;;;;;;;5000010;28;20034;-83
2022/12/06 02:26:34;;;;;;;6.32;3.20;;;;;;;;;;4999382;28;20046;-82
2022/12/06 02:29:27;;;;;;;6.03;3.15;;;;;;;;;;4999139;28;20507;-83
2022/12/06 02:32:03;;;;;;;4.97;2.97;;;;;;;;;;4999212;28;20038;-80
2022/12/06 02:34:45;;;;;;;5.10;2.95;;;;;;;;;;4999268;28;20383;-80
2022/12/06 02:37:25;;;;;;;5.13;3.13;;;;;;;;;;4981708;28;20021;-82
2022/12/06 02:40:09;;;;;;;6.60;3.40;;;;;;;;;;4999168;28;20030;-81
2022/12/06 02:42:41;;;;;;;5.57;3.60;;;;;;;;;;4981841;28;20030;-82
2022/12/06 02:45:19;;;;;;;6.68;3.90;;;;;;;;;;4997615;28;20492;-82
2022/12/06 02:47:47;;;;;;;7.00;3.50;;;;;;;;;;4980553;28;20440;-82
2022/12/06 02:50:27;;;;;;;7.30;3.97;;;;;;;;;;4999010;28;20034;-81
2022/12/06 02:52:55;;;;;;;8.10;4.05;;;;;;;;;;4999482;28;20030;-82
2022/12/06 02:55:22;;;;;;;7.30;3.90;;;;;;;;;;4981621;28;20022;-81
2022/12/06 02:57:50;;;;;;;7.93;3.97;;;;;;;;;;4999379;28;20494;-83
2022/12/06 03:00:32;;;;;;;5.90;3.30;;;;;;;;;;4999395;28;20561;-83
2022/12/06 03:03:15;;;;;;;9.00;4.13;;;;;;;;;;4999254;28;20026;-83
2022/12/06 03:06:05;;;;;;;6.07;3.75;;;;;;;;;;4998560;28;20049;-82
2022/12/06 03:08:54;;;;;;;9.65;4.18;;;;;;;;;;4980812;28;20034;-82
2022/12/06 03:11:19;;;;;;;7.78;4.30;;;;;;;;;;4981069;28;20027;-81
2022/12/06 03:14:01;;;;;;;10.52;4.00;;;;;;;;;;4998898;28;20048;-84
2022/12/06 03:16:31;;;;;;;7.18;4.15;;;;;;;;;;4981264;28;20018;-82
2022/12/06 03:19:06;;;;;;;7.18;4.10;;;;;;;;;;4998725;28;20049;-82
2022/12/06 03:21:38;;;;;;;8.00;4.50;;;;;;;;;;4981305;28;20030;-83
2022/12/06 03:24:08;;;;;;;7.22;4.13;;;;;;;;;;4998338;28;20030;-83
2022/12/06 03:26:36;;;;;;;7.93;4.30;;;;;;;;;;4998225;28;20019;-81
2022/12/06 03:29:04;;;;;;;7.13;3.67;;;;;;;;;;4998448;28;20395;-83
2022/12/06 03:31:31;;;;;;;7.30;4.00;;;;;;;;;;4999890;28;20153;-82
2022/12/06 03:34:03;;;;;;;8.00;3.78;;;;;;;;;;4998372;28;20042;-81
2022/12/06 03:36:30;;;;;;;6.80;3.80;;;;;;;;;;4998441;28;20472;-81
2022/12/06 03:39:00;;;;;;;7.60;3.83;;;;;;;;;;4998359;28;20041;-81
2022/12/06 03:41:43;;;;;;;8.80;4.10;;;;;;;;;;4997991;28;20042;-83
2022/12/06 03:44:08;;;;;;;5.82;3.80;;;;;;;;;;4998239;28;20026;-83
2022/12/06 03:46:37;;;;;;;6.68;4.00;;;;;;;;;;4997982;28;20456;-82
2022/12/06 03:49:08;;;;;;;8.52;4.38;;;;;;;;;;4980093;28;20506;-83
2022/12/06 03:51:37;;;;;;;10.13;4.53;;;;;;;;;;4980128;28;20121;-82
2022/12/06 03:54:04;;;;;;;6.45;3.72;;;;;;;;;;4997556;28;20036;-82
2022/12/06 03:56:31;;;;;;;7.22;4.10;;;;;;;;;;4979845;28;20126;-82
2022/12/06 03:58:56;;;;;;;6.25;3.75;;;;;;;;;;4997026;28;20423;-82
2022/12/06 04:01:22;;;;;;;7.38;4.40;;;;;;;;;;4997016;28;20074;-83
2022/12/06 04:03:47;;;;;;;9.20;3.92;;;;;;;;;;4980140;28;20037;-82
2022/12/06 04:06:13;;;;;;;10.07;3.83;;;;;;;;;;4997993;28;20026;-84
2022/12/06 04:08:38;;;;;;;8.55;4.55;;;;;;;;;;4998293;28;20476;-81
2022/12/06 04:11:04;;;;;;;5.93;3.50;;;;;;;;;;4997579;28;20033;-83
2022/12/06 04:13:30;;;;;;;8.45;4.30;;;;;;;;;;4998188;28;20085;-80
2022/12/06 04:15:58;;;;;;;5.68;3.50;;;;;;;;;;4997658;28;20022;-83
2022/12/06 04:18:24;;;;;;;5.95;3.88;;;;;;;;;;4997218;28;20439;-83
2022/12/06 04:23:42;;;;;;;7.72;3.67;;;;;;;;;;4996042;28;20554;-82
2022/12/06 04:26:10;;;;;;;6.53;3.97;;;;;;;;;;4997186;28;20026;-82
2022/12/06 04:39:32;;;;;;;6.90;3.85;;;;;;;;;;4997046;28;20503;-82
2022/12/06 04:44:42;;;;;;;5.40;3.63;;;;;;;;;;4997528;28;20045;-82
2022/12/06 04:47:08;;;;;;;6.63;3.53;;;;;;;;;;4997298;28;20030;-82
2022/12/06 04:49:33;;;;;;;5.97;3.63;;;;;;;;;;4998087;28;20034;-82
2022/12/06 04:51:59;;;;;;;6.38;3.90;;;;;;;;;;4997885;28;20049;-84
2022/12/06 04:54:24;;;;;;;5.68;3.60;;;;;;;;;;4997331;28;20027;-82
2022/12/06 04:56:50;;;;;;;7.30;3.90;;;;;;;;;;4997826;28;20027;-82
2022/12/06 04:59:15;;;;;;;5.63;3.50;;;;;;;;;;4997109;28;20026;-83
2022/12/06 05:01:40;;;;;;;5.45;3.67;;;;;;;;;;4998037;28;20041;-83
2022/12/06 05:04:06;;;;;;;6.22;3.42;;;;;;;;;;4996993;28;20053;-81
2022/12/06 05:06:31;;;;;;;6.05;3.70;;;;;;;;;;4997134;28;20046;-81
2022/12/06 05:08:56;;;;;;;6.82;3.70;;;;;;;;;;4997591;28;20026;-83
2022/12/06 05:11:22;;;;;;;6.55;3.30;;;;;;;;;;4984802;28;20036;-83
2022/12/06 05:13:47;;;;;;;8.20;3.75;;;;;;;;;;5001621;28;20049;-84
2022/12/06 05:16:12;;;;;;;6.22;4.10;;;;;;;;;;5000983;28;20033;-82
2022/12/06 05:18:38;;;;;;;7.15;3.35;;;;;;;;;;5001253;28;20025;-83
2022/12/06 05:21:12;;;;;;;6.25;3.40;;;;;;;;;;5001529;28;20084;-82
2022/12/06 05:23:37;;;;;;;6.45;3.67;;;;;;;;;;4983747;28;20037;-84
2022/12/06 05:26:07;;;;;;;8.57;3.55;;;;;;;;;;5002158;28;20043;-82
2022/12/06 05:28:33;;;;;;;5.70;3.58;;;;;;;;;;4984445;28;20033;-85
2022/12/06 05:30:58;;;;;;;7.03;3.65;;;;;;;;;;4983900;28;20030;-82
2022/12/06 05:33:24;;;;;;;5.75;3.40;;;;;;;;;;5000992;28;20026;-82
2022/12/06 05:35:50;;;;;;;6.60;3.90;;;;;;;;;;5001044;28;20030;-83
2022/12/06 05:38:15;;;;;;;5.10;2.58;;;;;;;;;;5000779;28;20014;-83
2022/12/06 05:40:41;;;;;;;5.50;3.40;;;;;;;;;;5001228;28;20037;-81
2022/12/06 05:43:07;;;;;;;9.30;3.72;;;;;;;;;;5001871;28;20030;-83
2022/12/06 05:45:32;;;;;;;5.68;3.55;;;;;;;;;;5002290;28;20030;-83
2022/12/06 05:47:58;;;;;;;6.75;3.28;;;;;;;;;;5002685;28;20480;-82
2022/12/06 05:50:23;;;;;;;8.80;3.65;;;;;;;;;;5001141;28;20487;-83
2022/12/06 05:52:52;;;;;;;5.50;3.55;;;;;;;;;;5001708;28;20069;-84
2022/12/06 05:55:18;;;;;;;6.22;3.85;;;;;;;;;;4982575;28;20030;-83
2022/12/06 05:57:43;;;;;;;7.85;3.72;;;;;;;;;;4983180;28;20026;-83
2022/12/06 06:00:08;;;;;;;6.82;3.40;;;;;;;;;;5000478;28;20022;-82
2022/12/06 06:02:34;;;;;;;6.03;3.70;;;;;;;;;;5001194;28;20033;-83
2022/12/06 06:04:59;;;;;;;5.38;3.70;;;;;;;;;;4983194;28;20030;-82
2022/12/06 06:07:24;;;;;;;6.00;3.70;;;;;;;;;;5000233;28;20101;-82
2022/12/06 06:09:50;;;;;;;7.40;3.50;;;;;;;;;;4982459;28;20061;-82
2022/12/06 06:12:15;;;;;;;5.95;3.72;;;;;;;;;;4982405;28;20030;-83
2022/12/06 06:14:40;;;;;;;6.40;3.70;;;;;;;;;;4999906;28;20061;-83
2022/12/06 06:17:06;;;;;;;6.15;3.97;;;;;;;;;;4999414;28;20025;-83
2022/12/06 06:19:31;;;;;;;8.45;3.63;;;;;;;;;;4999903;28;20025;-82
2022/12/06 06:21:56;;;;;;;6.90;4.00;;;;;;;;;;4982255;28;20090;-81
2022/12/06 06:24:22;;;;;;;7.82;4.25;;;;;;;;;;5000428;28;20041;-82
2022/12/06 06:26:48;;;;;;;6.28;3.97;;;;;;;;;;4981687;28;20543;-85
2022/12/06 06:29:13;;;;;;;5.38;3.50;;;;;;;;;;4999430;28;20047;-82
2022/12/06 06:31:38;;;;;;;6.22;4.18;;;;;;;;;;4999467;28;20032;-82
2022/12/06 06:34:03;;;;;;;7.97;4.35;;;;;;;;;;4998939;28;20034;-82
2022/12/06 06:36:29;;;;;;;7.25;4.28;;;;;;;;;;4998789;28;20048;-82
2022/12/06 06:38:54;;;;;;;7.10;4.20;;;;;;;;;;4999061;28;20022;-82
2022/12/06 06:41:25;;;;;;;9.98;4.00;;;;;;;;;;4999273;28;20030;-84
2022/12/06 06:43:50;;;;;;;6.30;4.05;;;;;;;;;;4999050;28;20391;-83
2022/12/06 06:46:16;;;;;;;7.68;4.70;;;;;;;;;;4999510;28;20030;-83
2022/12/06 06:48:41;;;;;;;8.05;4.00;;;;;;;;;;4981701;28;20026;-82
2022/12/06 06:51:09;;;;;;;6.47;4.15;;;;;;;;;;4981161;28;20034;-84
2022/12/06 06:53:35;;;;;;;8.93;4.60;;;;;;;;;;4999079;28;20033;-82
2022/12/06 06:56:01;;;;;;;9.48;4.60;;;;;;;;;;4999330;28;20026;-84
2022/12/06 06:58:27;;;;;;;5.63;4.05;;;;;;;;;;4999347;28;20014;-82
2022/12/06 07:00:57;;;;;;;6.95;3.72;;;;;;;;;;4999545;28;20458;-82
2022/12/06 07:03:24;;;;;;;8.88;4.32;;;;;;;;;;4999057;28;20022;-82
2022/12/06 07:06:00;;;;;;;8.68;4.47;;;;;;;;;;4999484;28;20026;-82
2022/12/06 07:08:26;;;;;;;7.68;4.75;;;;;;;;;;4998664;28;20483;-82
2022/12/06 07:10:55;;;;;;;6.28;3.97;;;;;;;;;;4999160;28;20034;-82
2022/12/06 07:13:23;;;;;;;7.90;4.22;;;;;;;;;;4998822;28;20164;-82
2022/12/06 07:15:49;;;;;;;5.55;3.75;;;;;;;;;;4999481;28;20417;-83
2022/12/06 07:18:18;;;;;;;8.98;4.20;;;;;;;;;;4999075;28;20026;-83
2022/12/06 07:20:44;;;;;;;9.77;3.92;;;;;;;;;;4999611;28;20049;-84
2022/12/06 07:23:10;;;;;;;10.18;4.90;;;;;;;;;;4999303;28;20105;-83
2022/12/06 07:25:35;;;;;;;7.72;4.63;;;;;;;;;;4981988;28;20042;-84
2022/12/06 07:28:00;;;;;;;9.15;4.72;;;;;;;;;;4999449;28;20047;-83
2022/12/06 07:30:26;;;;;;;8.35;4.30;;;;;;;;;;4999020;28;20050;-83
2022/12/06 07:32:52;;;;;;;7.15;4.28;;;;;;;;;;4998074;28;20506;-82
2022/12/06 07:35:17;;;;;;;7.47;4.32;;;;;;;;;;4999214;28;20030;-83
2022/12/06 07:37:44;;;;;;;9.55;4.90;;;;;;;;;;4998794;28;20045;-84
2022/12/06 07:40:11;;;;;;;7.85;4.35;;;;;;;;;;4982451;28;20030;-82
2022/12/06 07:45:20;;;;;;;5.97;3.72;;;;;;;;;;4998385;28;20073;-83
2022/12/06 07:47:45;;;;;;;8.38;4.40;;;;;;;;;;4981391;28;20026;-83
2022/12/06 07:50:13;;;;;;;7.47;4.05;;;;;;;;;;4998828;28;20031;-83
2022/12/06 07:52:39;;;;;;;7.20;4.10;;;;;;;;;;4980562;28;20026;-83
2022/12/06 07:55:06;;;;;;;9.68;4.25;;;;;;;;;;4998783;28;20085;-83
2022/12/06 07:57:31;;;;;;;6.78;3.90;;;;;;;;;;4981377;28;20022;-83
2022/12/06 07:59:57;;;;;;;5.82;3.25;;;;;;;;;;4999158;28;20038;-83
2022/12/06 08:02:27;;;;;;;6.47;4.28;;;;;;;;;;4980685;28;20034;-83
2022/12/06 08:04:53;;;;;;;6.55;3.90;;;;;;;;;;4998243;28;20034;-83
2022/12/06 08:07:20;;;;;;;9.85;4.30;;;;;;;;;;4998498;28;20018;-82
2022/12/06 08:09:45;;;;;;;7.28;4.20;;;;;;;;;;4998099;28;20159;-84
2022/12/06 08:12:11;;;;;;;9.93;4.57;;;;;;;;;;4997706;28;20119;-83
2022/12/06 08:14:37;;;;;;;7.05;4.40;;;;;;;;;;4980749;28;20524;-82
2022/12/06 08:17:03;;;;;;;8.35;4.65;;;;;;;;;;4998172;28;20094;-82
2022/12/06 08:19:29;;;;;;;8.52;4.25;;;;;;;;;;4981084;28;20033;-83
2022/12/06 08:21:54;;;;;;;8.52;4.18;;;;;;;;;;4997587;28;20030;-84
2022/12/06 08:24:20;;;;;;;8.13;4.82;;;;;;;;;;4997344;28;20026;-83
2022/12/06 08:26:46;;;;;;;6.72;4.22;;;;;;;;;;4980258;28;20054;-84
2022/12/06 08:29:11;;;;;;;7.10;4.03;;;;;;;;;;4998160;28;20041;-83
2022/12/06 08:31:36;;;;;;;7.45;4.55;;;;;;;;;;4980658;28;20026;-84
2022/12/06 08:34:03;;;;;;;8.95;4.70;;;;;;;;;;4998962;28;20052;-84
2022/12/06 08:36:28;;;;;;;9.00;3.95;;;;;;;;;;4998751;28;20027;-83
2022/12/06 08:38:54;;;;;;;6.35;4.20;;;;;;;;;;4981262;28;20018;-82
2022/12/06 08:44:05;;;;;;;7.57;4.70;;;;;;;;;;5000373;28;20033;-83
2022/12/06 08:46:34;;;;;;;7.18;4.43;;;;;;;;;;5000395;28;20104;-83
2022/12/06 08:49:00;;;;;;;7.88;4.80;;;;;;;;;;4983501;28;20045;-83
2022/12/06 08:51:26;;;;;;;8.38;5.03;;;;;;;;;;4999336;28;20026;-83
2022/12/06 08:53:52;;;;;;;7.57;4.93;;;;;;;;;;4999158;28;20038;-83
2022/12/06 08:56:18;;;;;;;7.13;4.57;;;;;;;;;;4981329;28;20026;-82
2022/12/06 08:58:43;;;;;;;7.25;4.53;;;;;;;;;;4999171;28;20022;-82
2022/12/06 09:01:15;;;;;;;7.35;4.75;;;;;;;;;;4981659;28;20034;-82
2022/12/06 09:03:40;;;;;;;6.60;4.53;;;;;;;;;;4999824;28;20026;-82
2022/12/06 09:06:06;;;;;;;9.18;4.80;;;;;;;;;;4999440;28;20029;-82
2022/12/06 09:08:32;;;;;;;7.57;4.50;;;;;;;;;;4999650;28;20539;-84
2022/12/06 09:10:57;;;;;;;7.18;4.63;;;;;;;;;;4999640;28;20038;-83
2022/12/06 09:13:22;;;;;;;7.30;4.63;;;;;;;;;;4999304;28;20454;-82
2022/12/06 09:15:47;;;;;;;12.27;4.38;;;;;;;;;;5000134;28;20034;-83
2022/12/06 09:18:13;;;;;;;7.63;4.57;;;;;;;;;;4999366;28;20392;-82
2022/12/06 09:20:39;;;;;;;8.68;5.00;;;;;;;;;;4982431;28;20026;-81
2022/12/06 09:23:04;;;;;;;7.40;4.45;;;;;;;;;;4999747;28;20100;-83
2022/12/06 09:25:30;;;;;;;7.18;4.53;;;;;;;;;;4999688;28;20427;-82
2022/12/06 09:27:55;;;;;;;8.07;4.72;;;;;;;;;;4999375;28;20018;-84
2022/12/06 09:30:20;;;;;;;7.38;4.80;;;;;;;;;;4999445;28;20038;-83
2022/12/06 09:32:47;;;;;;;9.30;5.07;;;;;;;;;;4999603;28;20022;-83
2022/12/06 09:35:12;;;;;;;9.00;4.70;;;;;;;;;;4999481;28;20050;-82
2022/12/06 09:37:37;;;;;;;7.50;5.15;;;;;;;;;;4998492;28;20519;-83
2022/12/06 09:40:22;;;;;;;7.03;4.53;;;;;;;;;;4998065;28;20026;-84
2022/12/06 09:43:09;;;;;;;7.93;4.50;;;;;;;;;;4998087;28;20063;-82
2022/12/06 09:45:43;;;;;;;8.20;4.95;;;;;;;;;;4998526;28;20030;-83
2022/12/06 09:48:47;;;;;;;8.77;4.70;;;;;;;;;;4997972;28;20030;-80
2022/12/06 09:51:23;;;;;;;9.07;4.60;;;;;;;;;;4949228;28;20138;-83
2022/12/06 09:54:01;;;;;;;7.28;4.20;;;;;;;;;;4981676;28;20037;-82
2022/12/06 09:56:39;;;;;;;8.32;4.57;;;;;;;;;;5001916;28;20022;-83
2022/12/06 09:59:34;;;;;;;6.95;4.60;;;;;;;;;;4984827;28;20022;-83
2022/12/06 10:02:21;;;;;;;7.35;4.63;;;;;;;;;;4956757;28;20042;-83
2022/12/06 10:05:14;;;;;;;6.10;4.00;;;;;;;;;;5003074;28;20023;-82
2022/12/06 10:07:47;;;;;;;8.50;4.60;;;;;;;;;;5003113;28;20440;-82
2022/12/06 10:10:25;;;;;;;6.20;4.10;;;;;;;;;;5002886;28;20037;-83
2022/12/06 10:13:16;;;;;;;7.93;4.50;;;;;;;;;;5003008;28;20030;-82
2022/12/06 10:15:51;;;;;;;7.75;4.57;;;;;;;;;;5003045;28;20029;-83
2022/12/06 10:18:33;;;;;;;9.02;4.82;;;;;;;;;;4985601;28;20476;-82
2022/12/06 10:21:15;;;;;;;7.10;4.07;;;;;;;;;;4969765;28;20081;-82
2022/12/06 10:24:13;;;;;;;6.03;4.13;;;;;;;;;;5002905;28;20026;-81
2022/12/06 10:26:47;;;;;;;7.63;4.25;;;;;;;;;;5002285;28;20480;-80
2022/12/06 10:29:20;;;;;;;7.70;4.55;;;;;;;;;;5002531;28;20492;-81
2022/12/06 10:31:56;;;;;;;7.95;4.18;;;;;;;;;;5003630;28;20037;-82
2022/12/06 10:34:24;;;;;;;8.27;4.78;;;;;;;;;;5003315;28;20031;-84
2022/12/06 10:36:55;;;;;;;8.93;4.85;;;;;;;;;;5003200;28;20022;-81
2022/12/06 10:39:30;;;;;;;6.53;4.03;;;;;;;;;;5002438;28;20034;-83
2022/12/06 10:42:26;;;;;;;6.82;4.35;;;;;;;;;;5002985;28;20084;-84
2022/12/06 10:44:57;;;;;;;6.40;4.22;;;;;;;;;;4984916;28;20033;-80
2022/12/06 10:47:28;;;;;;;8.38;4.80;;;;;;;;;;4985194;28;20023;-82
2022/12/06 10:50:02;;;;;;;6.75;4.70;;;;;;;;;;5003162;28;20050;-83
2022/12/06 10:52:35;;;;;;;6.90;4.35;;;;;;;;;;5002781;28;20122;-82
2022/12/06 10:55:09;;;;;;;6.13;4.13;;;;;;;;;;5002300;28;20041;-81
2022/12/06 10:57:59;;;;;;;7.03;4.45;;;;;;;;;;5001590;28;20069;-82
2022/12/06 11:00:30;;;;;;;7.47;3.90;;;;;;;;;;5001521;28;20030;-84
2022/12/06 11:02:55;;;;;;;6.60;4.57;;;;;;;;;;5001361;28;20057;-81
2022/12/06 11:05:31;;;;;;;6.72;4.30;;;;;;;;;;5001698;28;20498;-82
2022/12/06 11:08:14;;;;;;;7.43;4.55;;;;;;;;;;4983274;28;20030;-83
2022/12/06 11:10:42;;;;;;;8.20;4.47;;;;;;;;;;5001607;28;20023;-83
2022/12/06 11:13:33;;;;;;;6.97;4.30;;;;;;;;;;5002100;28;20054;-82
2022/12/06 11:16:05;;;;;;;6.43;3.97;;;;;;;;;;5001587;28;20029;-83
2022/12/06 11:18:32;;;;;;;7.13;4.35;;;;;;;;;;5001371;28;20027;-82
2022/12/06 11:21:09;;;;;;;8.25;4.82;;;;;;;;;;5000788;28;20037;-83
2022/12/06 11:24:12;;;;;;;6.35;4.38;;;;;;;;;;4983623;28;20033;-84
2022/12/06 11:26:46;;;;;;;6.35;4.28;;;;;;;;;;4983749;28;20034;-81
2022/12/06 11:29:14;;;;;;;7.15;4.32;;;;;;;;;;4983537;28;20054;-82
2022/12/06 11:31:44;;;;;;;7.53;4.13;;;;;;;;;;5001032;28;20026;-82
2022/12/06 11:34:25;;;;;;;5.50;3.88;;;;;;;;;;5001012;28;20520;-82
2022/12/06 11:36:53;;;;;;;6.85;4.32;;;;;;;;;;5000886;28;20030;-84
2022/12/06 11:39:19;;;;;;;6.95;4.28;;;;;;;;;;5000223;28;20086;-82
2022/12/06 11:41:49;;;;;;;7.43;4.20;;;;;;;;;;5000617;28;20483;-82
2022/12/06 11:44:26;;;;;;;6.45;4.15;;;;;;;;;;4999997;28;20041;-83
2022/12/06 11:46:57;;;;;;;7.55;4.43;;;;;;;;;;4999305;28;20030;-82
2022/12/06 11:49:29;;;;;;;6.28;4.15;;;;;;;;;;4999047;28;20030;-82
2022/12/06 11:51:56;;;;;;;7.25;4.13;;;;;;;;;;4999518;28;20050;-82
2022/12/06 11:54:26;;;;;;;6.47;4.30;;;;;;;;;;4983285;28;20034;-82
2022/12/06 11:56:55;;;;;;;10.07;4.82;;;;;;;;;;5001170;28;20030;-83
2022/12/06 11:59:30;;;;;;;11.48;5.60;;;;;;;;;;5000532;28;20028;-83
2022/12/06 12:02:01;;;;;;;8.13;4.43;;;;;;;;;;4998916;28;20058;-83
2022/12/06 12:04:40;;;;;;;7.43;4.43;;;;;;;;;;4981427;28;20116;-83
2022/12/06 12:07:08;;;;;;;7.95;4.38;;;;;;;;;;4981228;28;20022;-82
2022/12/06 12:09:44;;;;;;;9.63;4.70;;;;;;;;;;4998558;28;20483;-82
2022/12/06 12:15:30;;;;;;;6.13;4.13;;;;;;;;;;4999175;28;20045;-83
2022/12/06 12:17:57;;;;;;;8.88;4.78;;;;;;;;;;4998607;28;20026;-82
2022/12/06 12:20:49;;;;;;;9.82;4.97;;;;;;;;;;4998681;28;20110;-81
2022/12/06 12:23:32;;;;;;;7.55;4.40;;;;;;;;;;4995080;28;20408;-81
2022/12/06 12:26:16;;;;;;;6.25;3.60;;;;;;;;;;4998599;28;20082;-83
2022/12/06 12:28:43;;;;;;;6.28;4.22;;;;;;;;;;4999006;28;20033;-82
2022/12/06 12:31:21;;;;;;;7.30;4.68;;;;;;;;;;4998402;28;20028;-83
2022/12/06 12:33:47;;;;;;;6.25;4.05;;;;;;;;;;4998156;28;20037;-81
2022/12/06 12:36:31;;;;;;;7.65;3.67;;;;;;;;;;4980961;28;20030;-80
2022/12/06 12:39:01;;;;;;;7.55;4.25;;;;;;;;;;4998412;28;20031;-81
2022/12/06 12:41:32;;;;;;;7.05;3.92;;;;;;;;;;4980817;28;20042;-82
2022/12/06 12:44:03;;;;;;;9.45;4.47;;;;;;;;;;4998402;28;20430;-80
2022/12/06 12:46:30;;;;;;;5.65;3.22;;;;;;;;;;4980488;28;20027;-82
2022/12/06 12:49:33;;;;;;;11.27;4.40;;;;;;;;;;4980461;28;20082;-82
2022/12/06 12:52:00;;;;;;;7.80;4.60;;;;;;;;;;4997078;28;20049;-81
2022/12/06 12:54:28;;;;;;;6.38;3.72;;;;;;;;;;4997764;28;20380;-82
2022/12/06 12:56:54;;;;;;;8.23;4.50;;;;;;;;;;4998451;28;20046;-81
2022/12/06 12:59:24;;;;;;;8.32;4.38;;;;;;;;;;4997918;28;20026;-83
2022/12/06 13:02:21;;;;;;;7.95;3.83;;;;;;;;;;4980850;28;20030;-81
2022/12/06 13:04:56;;;;;;;8.23;4.25;;;;;;;;;;4997756;28;20026;-82
2022/12/06 13:07:34;;;;;;;8.13;4.55;;;;;;;;;;4998354;28;20496;-83
2022/12/06 13:09:59;;;;;;;7.60;4.28;;;;;;;;;;4997665;28;20033;-82
2022/12/06 13:12:39;;;;;;;7.20;4.30;;;;;;;;;;4997897;28;20030;-83
2022/12/06 13:15:04;;;;;;;8.73;4.45;;;;;;;;;;4980319;28;20296;-82
2022/12/06 13:17:33;;;;;;;6.20;3.53;;;;;;;;;;4998046;28;20022;-81
2022/12/06 13:19:59;;;;;;;6.72;4.45;;;;;;;;;;4996803;28;20027;-82
2022/12/06 13:22:29;;;;;;;10.05;4.30;;;;;;;;;;4997934;28;20026;-83
2022/12/06 13:24:59;;;;;;;8.95;4.63;;;;;;;;;;4997656;28;20026;-82
2022/12/06 13:27:27;;;;;;;8.02;4.45;;;;;;;;;;4997235;28;20476;-80
2022/12/06 13:30:05;;;;;;;7.38;4.78;;;;;;;;;;4980124;28;20392;-82
2022/12/06 13:32:41;;;;;;;6.30;4.32;;;;;;;;;;5001597;28;20026;-82
2022/12/06 13:35:16;;;;;;;6.70;4.32;;;;;;;;;;4983787;28;20018;-82
2022/12/06 13:37:51;;;;;;;8.10;5.07;;;;;;;;;;5002229;28;20380;-82
2022/12/06 13:40:34;;;;;;;7.60;4.88;;;;;;;;;;5002236;28;20509;-82
2022/12/06 13:43:04;;;;;;;9.15;5.13;;;;;;;;;;5001907;28;20373;-82
2022/12/06 13:45:52;;;;;;;9.68;5.00;;;;;;;;;;4984772;28;20030;-83
2022/12/06 13:48:23;;;;;;;9.35;5.13;;;;;;;;;;4984551;28;20034;-82
2022/12/06 13:50:53;;;;;;;9.65;4.93;;;;;;;;;;5001381;28;20031;-83
2022/12/06 13:53:21;;;;;;;6.47;4.18;;;;;;;;;;5001707;28;20049;-83
2022/12/06 13:55:53;;;;;;;5.45;3.55;;;;;;;;;;5001799;28;20045;-82
2022/12/06 13:58:18;;;;;;;9.07;4.75;;;;;;;;;;5002071;28;20022;-83
2022/12/06 14:00:48;;;;;;;10.20;5.47;;;;;;;;;;4987666;28;20032;-82
2022/12/06 14:03:16;;;;;;;10.77;5.32;;;;;;;;;;5004655;28;20339;-82
2022/12/06 14:06:08;;;;;;;8.65;4.80;;;;;;;;;;5001647;28;20538;-83
2022/12/06 14:08:40;;;;;;;8.07;4.40;;;;;;;;;;4982617;28;20030;-83
2022/12/06 14:11:11;;;;;;;8.77;5.50;;;;;;;;;;4999773;28;20090;-82
2022/12/06 14:13:37;;;;;;;8.32;4.95;;;;;;;;;;5000455;28;20030;-82
2022/12/06 14:16:03;;;;;;;5.70;3.65;;;;;;;;;;4999908;28;20585;-82
2022/12/06 14:18:29;;;;;;;9.15;5.28;;;;;;;;;;5000952;28;20018;-82
2022/12/06 14:20:56;;;;;;;9.18;5.00;;;;;;;;;;4982795;28;20022;-83
2022/12/06 14:23:27;;;;;;;7.18;4.47;;;;;;;;;;5000454;28;20036;-82
2022/12/06 14:26:11;;;;;;;6.55;4.57;;;;;;;;;;5000871;28;20036;-82
2022/12/06 14:28:37;;;;;;;6.47;4.00;;;;;;;;;;5000404;28;20022;-81
2022/12/06 14:31:04;;;;;;;5.25;3.33;;;;;;;;;;4982914;28;20129;-83
2022/12/06 14:33:30;;;;;;;7.40;4.47;;;;;;;;;;5000428;28;20030;-83
2022/12/06 14:35:55;;;;;;;6.18;4.28;;;;;;;;;;5001367;28;20034;-83
2022/12/06 14:38:26;;;;;;;7.38;4.60;;;;;;;;;;5000171;28;20015;-82
2022/12/06 14:43:38;;;;;;;6.22;4.22;;;;;;;;;;5001360;28;20040;-83
2022/12/06 14:46:06;;;;;;;7.93;4.47;;;;;;;;;;5000744;28;20563;-82
2022/12/06 14:51:25;;;;;;;9.00;4.80;;;;;;;;;;5000496;28;20084;-83
2022/12/06 14:53:51;;;;;;;7.80;4.93;;;;;;;;;;4983220;28;20045;-82
2022/12/06 14:56:28;;;;;;;7.68;4.72;;;;;;;;;;4982655;28;20026;-83
2022/12/06 14:58:57;;;;;;;6.75;4.30;;;;;;;;;;4982982;28;20037;-82
2022/12/06 15:01:26;;;;;;;9.35;4.70;;;;;;;;;;5000391;28;20026;-83
2022/12/06 15:04:04;;;;;;;6.40;4.38;;;;;;;;;;5000612;28;20113;-83
2022/12/06 15:06:31;;;;;;;7.80;4.38;;;;;;;;;;4982623;28;20094;-82
2022/12/06 15:08:57;;;;;;;7.80;4.43;;;;;;;;;;5000203;28;20022;-83
2022/12/06 15:14:20;;;;;;;6.40;4.10;;;;;;;;;;5000214;28;20255;-82
2022/12/06 15:17:13;;;;;;;;;;;;;;;;;;4982908;28;20030;-82
2022/12/06 15:19:49;;;;;;;5.80;3.95;;;;;;;;;;4999959;28;19937;-82
2022/12/06 15:22:19;;;;;;;6.38;4.30;;;;;;;;;;4982662;28;20169;-82
2022/12/06 15:24:45;;;;;;;6.35;3.80;;;;;;;;;;4983042;28;20118;-84
2022/12/06 15:27:11;;;;;;;7.85;4.03;;;;;;;;;;4999555;28;20061;-81
2022/12/06 15:29:37;;;;;;;6.72;4.35;;;;;;;;;;4999877;28;20030;-83
2022/12/06 15:32:02;;;;;;;6.22;3.95;;;;;;;;;;4982318;28;20408;-83
2022/12/06 15:34:29;;;;;;;6.13;3.28;;;;;;;;;;4999312;28;20022;-83